PROFILE

 METAR AND TAF INFORMATION
ADDS - METARS form results

(0040 UTC 13 November 2018)
http://aviationweather.gov/metar/data/
 
LFBD 130030Z AUTO VRB01KT 7000 FEW017 OVC094 11/11 Q1024 BECMG 4000 BR BKN005
LFBD 130000Z AUTO 14002KT 9999 -RA NSC 11/11 Q1024 BECMG 4000 BR
TAF LFBD 122300Z 1300/1406 VRB03KT CAVOK TX15/1313Z TN06/1406Z BECMG 1300/1302 4000 BR NSC BECMG 1302/1304 BKN005 PROB30 1304/1308 0500 FG VV/// BECMG 1308/1310 9999 NSW BECMG 1311/1313 SCT015 BECMG 1313/1315 06005KT CAVOK BECMG 1322/1324 4000 BR NSC PROB40 1400/1406 0800 BCFG 

 AIRPORT MAP

 RUNWAY INFORMATION
Runway 05 Runway length 10171 ft Runway width 148 ft
Runway elevation 160 ft Runway displaced threshold 0 ft Runway heading 46
Runway 23 Runway length 10171 ft Runway width 148 ft
Runway elevation 151 ft Runway displaced threshold 0 ft Runway heading 226
Runway 11 Runway length 7923 ft Runway width 148 ft
Runway elevation 153 ft Runway displaced threshold 0 ft Runway heading 107
Runway 29 Runway length 7923 ft Runway width 148 ft
Runway elevation 160 ft Runway displaced threshold 0 ft Runway heading 287

 AIRPORT FREQUENCIES
Type APP Name AQUITAINE Frequency 118.6 MHZ
Type ARR Name APP Frequency 121.2 MHZ
Type ATIS Name ATIS Frequency 131.15 MHZ
Type GND Name GND Frequency 121.9 MHZ
Type INFO Name AQUITAINE Frequency 120.575 MHZ
Type OPS Name OPNS Frequency 143.175 MHZ
Type TWR Name TWR Frequency 118.3 MHZ

 AIRPORT NEAR NAVIGATION AIDS
Type NDB Name Bordeaux Frequency 393 KHZ
Type TACAN Name Bordeaux Frequency 114400 KHZ
Type NDB Name Bordeaux Frequency 318 KHZ
Type VOR-DME Name Bordeaux Frequency 113750 KHZ
Type NDB Name Bordeaux Frequency 361 KHZ